sensor_id;sensor_type;location;lat;lon;timestamp;temperature;humidity
7360;DHT22;3720;48.274;7.796;2023-08-06T00:01:14;17.40;99.90
7360;DHT22;3720;48.274;7.796;2023-08-06T00:03:45;17.40;99.90
7360;DHT22;3720;48.274;7.796;2023-08-06T00:06:19;17.50;99.90
7360;DHT22;3720;48.274;7.796;2023-08-06T00:08:51;17.40;99.90
7360;DHT22;3720;48.274;7.796;2023-08-06T00:11:23;17.30;99.90
7360;DHT22;3720;48.274;7.796;2023-08-06T00:13:55;17.40;99.90
7360;DHT22;3720;48.274;7.796;2023-08-06T00:16:26;17.40;99.90
7360;DHT22;3720;48.274;7.796;2023-08-06T00:18:58;17.30;99.90
7360;DHT22;3720;48.274;7.796;2023-08-06T00:21:31;17.30;99.90
7360;DHT22;3720;48.274;7.796;2023-08-06T00:24:04;17.30;99.90
7360;DHT22;3720;48.274;7.796;2023-08-06T00:26:35;17.30;99.90
7360;DHT22;3720;48.274;7.796;2023-08-06T00:29:07;17.30;99.90
7360;DHT22;3720;48.274;7.796;2023-08-06T00:31:39;17.30;99.90
7360;DHT22;3720;48.274;7.796;2023-08-06T00:34:11;17.20;99.90
7360;DHT22;3720;48.274;7.796;2023-08-06T00:36:44;17.20;99.90
7360;DHT22;3720;48.274;7.796;2023-08-06T00:39:16;17.20;99.90
7360;DHT22;3720;48.274;7.796;2023-08-06T00:41:48;17.10;99.90
7360;DHT22;3720;48.274;7.796;2023-08-06T00:44:20;17.10;99.90
7360;DHT22;3720;48.274;7.796;2023-08-06T00:46:52;17.10;99.90
7360;DHT22;3720;48.274;7.796;2023-08-06T00:49:24;17.10;99.90
7360;DHT22;3720;48.274;7.796;2023-08-06T00:51:58;17.00;99.90
7360;DHT22;3720;48.274;7.796;2023-08-06T00:54:31;17.00;99.90
7360;DHT22;3720;48.274;7.796;2023-08-06T00:57:05;17.00;99.90
7360;DHT22;3720;48.274;7.796;2023-08-06T00:59:38;17.00;99.90
7360;DHT22;3720;48.274;7.796;2023-08-06T01:02:10;17.00;99.90
7360;DHT22;3720;48.274;7.796;2023-08-06T01:04:42;17.00;99.90
7360;DHT22;3720;48.274;7.796;2023-08-06T01:07:32;17.00;99.90
7360;DHT22;3720;48.274;7.796;2023-08-06T01:10:19;17.00;99.90
7360;DHT22;3720;48.274;7.796;2023-08-06T01:13:03;17.00;99.90
7360;DHT22;3720;48.274;7.796;2023-08-06T01:15:42;17.00;99.90
7360;DHT22;3720;48.274;7.796;2023-08-06T01:18:15;16.90;99.90
7360;DHT22;3720;48.274;7.796;2023-08-06T01:20:49;16.90;99.90
7360;DHT22;3720;48.274;7.796;2023-08-06T01:23:21;16.90;99.90
7360;DHT22;3720;48.274;7.796;2023-08-06T01:25:59;16.90;99.90
7360;DHT22;3720;48.274;7.796;2023-08-06T01:28:40;16.90;99.90
7360;DHT22;3720;48.274;7.796;2023-08-06T01:31:18;16.90;99.90
7360;DHT22;3720;48.274;7.796;2023-08-06T01:33:51;17.00;99.90
7360;DHT22;3720;48.274;7.796;2023-08-06T01:36:26;17.00;99.90
7360;DHT22;3720;48.274;7.796;2023-08-06T01:39:00;17.00;99.90
7360;DHT22;3720;48.274;7.796;2023-08-06T01:41:32;16.80;99.90
7360;DHT22;3720;48.274;7.796;2023-08-06T01:44:05;16.80;99.90
7360;DHT22;3720;48.274;7.796;2023-08-06T01:46:37;16.70;99.90
7360;DHT22;3720;48.274;7.796;2023-08-06T01:49:09;16.70;99.90
7360;DHT22;3720;48.274;7.796;2023-08-06T01:51:42;16.60;99.90
7360;DHT22;3720;48.274;7.796;2023-08-06T01:54:14;16.50;99.90
7360;DHT22;3720;48.274;7.796;2023-08-06T01:56:45;16.40;99.90
7360;DHT22;3720;48.274;7.796;2023-08-06T01:59:17;16.30;99.90
7360;DHT22;3720;48.274;7.796;2023-08-06T02:01:49;16.30;99.90
7360;DHT22;3720;48.274;7.796;2023-08-06T02:04:21;16.20;99.90
7360;DHT22;3720;48.274;7.796;2023-08-06T02:06:54;16.20;99.90
7360;DHT22;3720;48.274;7.796;2023-08-06T02:09:26;16.10;99.90
7360;DHT22;3720;48.274;7.796;2023-08-06T02:11:58;16.10;99.90
7360;DHT22;3720;48.274;7.796;2023-08-06T02:14:30;16.10;99.90
7360;DHT22;3720;48.274;7.796;2023-08-06T02:17:02;16.10;99.90
7360;DHT22;3720;48.274;7.796;2023-08-06T02:19:34;16.10;99.90
7360;DHT22;3720;48.274;7.796;2023-08-06T02:22:07;16.10;99.90
7360;DHT22;3720;48.274;7.796;2023-08-06T02:24:39;16.20;99.90
7360;DHT22;3720;48.274;7.796;2023-08-06T02:27:10;16.20;99.90
7360;DHT22;3720;48.274;7.796;2023-08-06T02:29:42;16.10;99.90
7360;DHT22;3720;48.274;7.796;2023-08-06T02:32:15;16.00;99.90
7360;DHT22;3720;48.274;7.796;2023-08-06T02:34:47;16.00;99.90
7360;DHT22;3720;48.274;7.796;2023-08-06T02:37:20;16.00;99.90
7360;DHT22;3720;48.274;7.796;2023-08-06T02:39:52;15.90;99.90
7360;DHT22;3720;48.274;7.796;2023-08-06T02:42:24;15.80;99.90
7360;DHT22;3720;48.274;7.796;2023-08-06T02:44:57;15.80;99.90
7360;DHT22;3720;48.274;7.796;2023-08-06T02:47:28;15.80;99.90
7360;DHT22;3720;48.274;7.796;2023-08-06T02:50:02;15.80;99.90
7360;DHT22;3720;48.274;7.796;2023-08-06T02:52:35;15.80;99.90
7360;DHT22;3720;48.274;7.796;2023-08-06T02:55:09;15.80;99.90
7360;DHT22;3720;48.274;7.796;2023-08-06T02:57:41;15.70;99.90
7360;DHT22;3720;48.274;7.796;2023-08-06T03:00:13;15.70;99.90
7360;DHT22;3720;48.274;7.796;2023-08-06T03:02:45;15.70;99.90
7360;DHT22;3720;48.274;7.796;2023-08-06T03:05:17;15.80;99.90
7360;DHT22;3720;48.274;7.796;2023-08-06T03:07:50;15.80;99.90
7360;DHT22;3720;48.274;7.796;2023-08-06T03:10:22;15.80;99.90
7360;DHT22;3720;48.274;7.796;2023-08-06T03:12:54;15.80;99.90
7360;DHT22;3720;48.274;7.796;2023-08-06T03:15:26;15.80;99.90
7360;DHT22;3720;48.274;7.796;2023-08-06T03:17:57;15.80;99.90
7360;DHT22;3720;48.274;7.796;2023-08-06T03:20:30;15.80;99.90
7360;DHT22;3720;48.274;7.796;2023-08-06T03:23:03;15.70;99.90
7360;DHT22;3720;48.274;7.796;2023-08-06T03:25:35;15.70;99.90
7360;DHT22;3720;48.274;7.796;2023-08-06T03:28:07;15.70;99.90
7360;DHT22;3720;48.274;7.796;2023-08-06T03:30:39;15.70;99.90
7360;DHT22;3720;48.274;7.796;2023-08-06T03:33:11;15.60;99.90
7360;DHT22;3720;48.274;7.796;2023-08-06T03:35:43;15.60;99.90
7360;DHT22;3720;48.274;7.796;2023-08-06T03:38:16;15.70;99.90
7360;DHT22;3720;48.274;7.796;2023-08-06T03:40:48;15.70;99.90
7360;DHT22;3720;48.274;7.796;2023-08-06T03:43:20;15.70;99.90
7360;DHT22;3720;48.274;7.796;2023-08-06T03:45:52;15.80;99.90
7360;DHT22;3720;48.274;7.796;2023-08-06T03:48:23;15.70;99.90
7360;DHT22;3720;48.274;7.796;2023-08-06T03:50:55;15.70;99.90
7360;DHT22;3720;48.274;7.796;2023-08-06T03:53:29;15.70;99.90
7360;DHT22;3720;48.274;7.796;2023-08-06T03:56:00;15.70;99.90
7360;DHT22;3720;48.274;7.796;2023-08-06T03:58:32;15.60;99.90
7360;DHT22;3720;48.274;7.796;2023-08-06T04:01:04;15.60;99.90
7360;DHT22;3720;48.274;7.796;2023-08-06T04:03:36;15.60;99.90
7360;DHT22;3720;48.274;7.796;2023-08-06T04:06:09;15.60;99.90
7360;DHT22;3720;48.274;7.796;2023-08-06T04:08:42;15.60;99.90
7360;DHT22;3720;48.274;7.796;2023-08-06T04:11:24;15.60;99.90
7360;DHT22;3720;48.274;7.796;2023-08-06T04:13:56;15.60;99.90
7360;DHT22;3720;48.274;7.796;2023-08-06T04:16:28;15.60;99.90
7360;DHT22;3720;48.274;7.796;2023-08-06T04:19:00;15.60;99.90
7360;DHT22;3720;48.274;7.796;2023-08-06T04:21:31;15.50;99.90
7360;DHT22;3720;48.274;7.796;2023-08-06T04:24:05;15.50;99.90
7360;DHT22;3720;48.274;7.796;2023-08-06T04:26:37;15.50;99.90
7360;DHT22;3720;48.274;7.796;2023-08-06T04:29:09;15.50;99.90
7360;DHT22;3720;48.274;7.796;2023-08-06T04:31:41;15.50;99.90
7360;DHT22;3720;48.274;7.796;2023-08-06T04:34:12;15.40;99.90
7360;DHT22;3720;48.274;7.796;2023-08-06T04:36:44;15.40;99.90
7360;DHT22;3720;48.274;7.796;2023-08-06T04:39:18;15.30;99.90
7360;DHT22;3720;48.274;7.796;2023-08-06T04:41:49;15.20;99.90
7360;DHT22;3720;48.274;7.796;2023-08-06T04:44:21;15.10;99.90
7360;DHT22;3720;48.274;7.796;2023-08-06T04:46:53;14.90;99.90
7360;DHT22;3720;48.274;7.796;2023-08-06T04:49:25;14.80;99.90
7360;DHT22;3720;48.274;7.796;2023-08-06T04:51:57;14.70;99.90
7360;DHT22;3720;48.274;7.796;2023-08-06T04:54:30;14.70;99.90
7360;DHT22;3720;48.274;7.796;2023-08-06T04:57:02;14.60;99.90
7360;DHT22;3720;48.274;7.796;2023-08-06T04:59:34;14.60;99.90
7360;DHT22;3720;48.274;7.796;2023-08-06T05:02:06;14.50;99.90
7360;DHT22;3720;48.274;7.796;2023-08-06T05:04:38;14.50;99.90
7360;DHT22;3720;48.274;7.796;2023-08-06T05:07:10;14.50;99.90
7360;DHT22;3720;48.274;7.796;2023-08-06T05:09:44;14.50;99.90
7360;DHT22;3720;48.274;7.796;2023-08-06T05:12:16;14.40;99.90
7360;DHT22;3720;48.274;7.796;2023-08-06T05:14:47;14.40;99.90
7360;DHT22;3720;48.274;7.796;2023-08-06T05:17:19;14.40;99.90
7360;DHT22;3720;48.274;7.796;2023-08-06T05:19:53;14.40;99.90
7360;DHT22;3720;48.274;7.796;2023-08-06T05:22:25;14.40;99.90
7360;DHT22;3720;48.274;7.796;2023-08-06T05:24:58;14.40;99.90
7360;DHT22;3720;48.274;7.796;2023-08-06T05:27:30;14.40;99.90
7360;DHT22;3720;48.274;7.796;2023-08-06T05:30:02;14.40;99.90
7360;DHT22;3720;48.274;7.796;2023-08-06T05:32:34;14.40;99.90
7360;DHT22;3720;48.274;7.796;2023-08-06T05:35:06;14.40;99.90
7360;DHT22;3720;48.274;7.796;2023-08-06T05:37:38;14.40;99.90
7360;DHT22;3720;48.274;7.796;2023-08-06T05:40:12;14.40;99.90
7360;DHT22;3720;48.274;7.796;2023-08-06T05:42:44;14.40;99.90
7360;DHT22;3720;48.274;7.796;2023-08-06T05:45:16;14.30;99.90
7360;DHT22;3720;48.274;7.796;2023-08-06T05:47:48;14.40;99.90
7360;DHT22;3720;48.274;7.796;2023-08-06T05:50:20;14.40;99.90
7360;DHT22;3720;48.274;7.796;2023-08-06T05:52:52;14.40;99.90
7360;DHT22;3720;48.274;7.796;2023-08-06T05:55:26;14.40;99.90
7360;DHT22;3720;48.274;7.796;2023-08-06T05:57:58;14.50;99.90
7360;DHT22;3720;48.274;7.796;2023-08-06T06:00:30;14.50;99.90
7360;DHT22;3720;48.274;7.796;2023-08-06T06:03:01;14.50;99.90
7360;DHT22;3720;48.274;7.796;2023-08-06T06:05:33;14.50;99.90
7360;DHT22;3720;48.274;7.796;2023-08-06T06:08:05;14.50;99.90
7360;DHT22;3720;48.274;7.796;2023-08-06T06:10:38;14.50;99.90
7360;DHT22;3720;48.274;7.796;2023-08-06T06:13:10;14.50;99.90
7360;DHT22;3720;48.274;7.796;2023-08-06T06:15:42;14.40;99.90
7360;DHT22;3720;48.274;7.796;2023-08-06T06:18:14;14.40;99.90
7360;DHT22;3720;48.274;7.796;2023-08-06T06:20:46;14.40;99.90
7360;DHT22;3720;48.274;7.796;2023-08-06T06:23:18;14.30;99.90
7360;DHT22;3720;48.274;7.796;2023-08-06T06:25:51;14.30;99.90
7360;DHT22;3720;48.274;7.796;2023-08-06T06:28:23;14.20;99.90
7360;DHT22;3720;48.274;7.796;2023-08-06T06:31:00;14.30;99.90
7360;DHT22;3720;48.274;7.796;2023-08-06T06:33:31;14.20;99.90
7360;DHT22;3720;48.274;7.796;2023-08-06T06:36:04;14.20;99.90
7360;DHT22;3720;48.274;7.796;2023-08-06T06:38:38;14.30;99.90
7360;DHT22;3720;48.274;7.796;2023-08-06T06:41:11;14.30;99.90
7360;DHT22;3720;48.274;7.796;2023-08-06T06:43:43;14.30;99.90
7360;DHT22;3720;48.274;7.796;2023-08-06T06:46:14;14.30;99.90
7360;DHT22;3720;48.274;7.796;2023-08-06T06:48:46;14.30;99.90
7360;DHT22;3720;48.274;7.796;2023-08-06T06:51:18;14.30;99.90
7360;DHT22;3720;48.274;7.796;2023-08-06T06:53:50;14.30;99.90
7360;DHT22;3720;48.274;7.796;2023-08-06T06:56:23;14.30;99.90
7360;DHT22;3720;48.274;7.796;2023-08-06T06:58:55;14.30;99.90
7360;DHT22;3720;48.274;7.796;2023-08-06T07:01:27;14.30;99.90
7360;DHT22;3720;48.274;7.796;2023-08-06T07:03:59;14.30;99.90
7360;DHT22;3720;48.274;7.796;2023-08-06T07:06:35;14.30;99.90
7360;DHT22;3720;48.274;7.796;2023-08-06T07:09:07;14.30;99.90
7360;DHT22;3720;48.274;7.796;2023-08-06T07:11:40;14.30;99.90
7360;DHT22;3720;48.274;7.796;2023-08-06T07:14:14;14.30;99.90
7360;DHT22;3720;48.274;7.796;2023-08-06T07:16:46;14.30;99.90
7360;DHT22;3720;48.274;7.796;2023-08-06T07:19:17;14.30;99.90
7360;DHT22;3720;48.274;7.796;2023-08-06T07:21:49;14.40;99.90
7360;DHT22;3720;48.274;7.796;2023-08-06T07:24:21;14.40;99.90
7360;DHT22;3720;48.274;7.796;2023-08-06T07:26:54;14.40;99.90
7360;DHT22;3720;48.274;7.796;2023-08-06T07:29:26;14.30;99.90
7360;DHT22;3720;48.274;7.796;2023-08-06T07:31:58;14.40;99.90
7360;DHT22;3720;48.274;7.796;2023-08-06T07:34:30;14.40;99.90
7360;DHT22;3720;48.274;7.796;2023-08-06T07:37:02;14.40;99.90
7360;DHT22;3720;48.274;7.796;2023-08-06T07:39:34;14.40;99.90
7360;DHT22;3720;48.274;7.796;2023-08-06T07:42:10;14.40;99.90
7360;DHT22;3720;48.274;7.796;2023-08-06T07:44:42;14.50;99.90
7360;DHT22;3720;48.274;7.796;2023-08-06T07:47:14;14.50;99.90
7360;DHT22;3720;48.274;7.796;2023-08-06T07:49:46;14.60;99.90
7360;DHT22;3720;48.274;7.796;2023-08-06T07:52:18;14.60;99.90
7360;DHT22;3720;48.274;7.796;2023-08-06T07:54:50;14.60;99.90
7360;DHT22;3720;48.274;7.796;2023-08-06T07:57:23;14.60;99.90
7360;DHT22;3720;48.274;7.796;2023-08-06T07:59:55;14.60;99.90
7360;DHT22;3720;48.274;7.796;2023-08-06T08:02:27;14.60;99.90
7360;DHT22;3720;48.274;7.796;2023-08-06T08:05:00;14.60;99.90
7360;DHT22;3720;48.274;7.796;2023-08-06T08:07:32;14.60;99.90
7360;DHT22;3720;48.274;7.796;2023-08-06T08:10:06;14.60;99.90
7360;DHT22;3720;48.274;7.796;2023-08-06T08:12:39;14.70;99.90
7360;DHT22;3720;48.274;7.796;2023-08-06T08:15:11;14.80;99.90
7360;DHT22;3720;48.274;7.796;2023-08-06T08:17:43;14.80;99.90
7360;DHT22;3720;48.274;7.796;2023-08-06T08:20:16;14.80;99.90
7360;DHT22;3720;48.274;7.796;2023-08-06T08:22:48;14.90;99.90
7360;DHT22;3720;48.274;7.796;2023-08-06T08:25:20;15.00;99.90
7360;DHT22;3720;48.274;7.796;2023-08-06T08:27:54;15.10;99.90
7360;DHT22;3720;48.274;7.796;2023-08-06T08:30:26;15.20;99.90
7360;DHT22;3720;48.274;7.796;2023-08-06T08:32:58;15.20;99.90
7360;DHT22;3720;48.274;7.796;2023-08-06T08:35:30;15.20;99.90
7360;DHT22;3720;48.274;7.796;2023-08-06T08:38:02;15.20;99.90
7360;DHT22;3720;48.274;7.796;2023-08-06T08:40:39;15.20;99.90
7360;DHT22;3720;48.274;7.796;2023-08-06T08:43:18;15.20;99.90
7360;DHT22;3720;48.274;7.796;2023-08-06T08:45:52;15.30;99.90
7360;DHT22;3720;48.274;7.796;2023-08-06T08:48:26;15.30;99.90
7360;DHT22;3720;48.274;7.796;2023-08-06T08:50:59;15.40;99.90
7360;DHT22;3720;48.274;7.796;2023-08-06T08:53:32;15.40;99.90
7360;DHT22;3720;48.274;7.796;2023-08-06T08:56:04;15.40;99.90
7360;DHT22;3720;48.274;7.796;2023-08-06T08:58:38;15.50;99.90
7360;DHT22;3720;48.274;7.796;2023-08-06T09:01:10;15.50;99.90
7360;DHT22;3720;48.274;7.796;2023-08-06T09:03:43;15.50;99.90
7360;DHT22;3720;48.274;7.796;2023-08-06T09:06:15;15.60;99.90
7360;DHT22;3720;48.274;7.796;2023-08-06T09:08:54;15.60;99.90
7360;DHT22;3720;48.274;7.796;2023-08-06T09:11:29;15.70;99.90
7360;DHT22;3720;48.274;7.796;2023-08-06T09:14:11;15.70;99.90
7360;DHT22;3720;48.274;7.796;2023-08-06T09:16:43;15.90;99.90
7360;DHT22;3720;48.274;7.796;2023-08-06T09:19:15;15.90;99.90
7360;DHT22;3720;48.274;7.796;2023-08-06T09:21:51;15.90;99.90
7360;DHT22;3720;48.274;7.796;2023-08-06T09:24:23;16.00;99.90
7360;DHT22;3720;48.274;7.796;2023-08-06T09:26:56;16.00;99.90
7360;DHT22;3720;48.274;7.796;2023-08-06T09:29:31;16.00;99.90
7360;DHT22;3720;48.274;7.796;2023-08-06T09:32:03;16.10;99.90
7360;DHT22;3720;48.274;7.796;2023-08-06T09:34:38;16.10;99.90
7360;DHT22;3720;48.274;7.796;2023-08-06T09:37:11;16.10;99.90
7360;DHT22;3720;48.274;7.796;2023-08-06T09:39:43;16.20;99.90
7360;DHT22;3720;48.274;7.796;2023-08-06T09:42:15;16.20;99.90
7360;DHT22;3720;48.274;7.796;2023-08-06T09:44:48;16.30;99.90
7360;DHT22;3720;48.274;7.796;2023-08-06T09:47:20;16.20;99.90
7360;DHT22;3720;48.274;7.796;2023-08-06T09:49:56;16.30;99.90
7360;DHT22;3720;48.274;7.796;2023-08-06T09:52:28;16.20;99.90
7360;DHT22;3720;48.274;7.796;2023-08-06T09:55:01;16.20;99.90
7360;DHT22;3720;48.274;7.796;2023-08-06T09:57:34;16.30;99.90
7360;DHT22;3720;48.274;7.796;2023-08-06T10:00:09;16.30;99.90
7360;DHT22;3720;48.274;7.796;2023-08-06T10:02:43;16.30;99.90
7360;DHT22;3720;48.274;7.796;2023-08-06T10:05:15;16.50;99.90
7360;DHT22;3720;48.274;7.796;2023-08-06T10:07:47;16.40;99.90
7360;DHT22;3720;48.274;7.796;2023-08-06T10:10:21;16.50;99.90
7360;DHT22;3720;48.274;7.796;2023-08-06T10:12:57;16.50;99.90
7360;DHT22;3720;48.274;7.796;2023-08-06T10:15:32;16.50;99.90
7360;DHT22;3720;48.274;7.796;2023-08-06T10:18:05;16.60;99.90
7360;DHT22;3720;48.274;7.796;2023-08-06T10:20:38;16.60;99.90
7360;DHT22;3720;48.274;7.796;2023-08-06T10:23:10;16.60;99.90
7360;DHT22;3720;48.274;7.796;2023-08-06T10:25:53;16.70;99.90
7360;DHT22;3720;48.274;7.796;2023-08-06T10:28:34;16.70;99.90
7360;DHT22;3720;48.274;7.796;2023-08-06T10:31:08;16.60;99.90
7360;DHT22;3720;48.274;7.796;2023-08-06T10:33:41;16.60;99.90
7360;DHT22;3720;48.274;7.796;2023-08-06T10:36:14;16.60;99.90
7360;DHT22;3720;48.274;7.796;2023-08-06T10:38:48;16.50;99.90
7360;DHT22;3720;48.274;7.796;2023-08-06T10:41:23;16.40;99.90
7360;DHT22;3720;48.274;7.796;2023-08-06T10:44:05;16.40;99.90
7360;DHT22;3720;48.274;7.796;2023-08-06T10:46:40;16.40;99.90
7360;DHT22;3720;48.274;7.796;2023-08-06T10:49:13;16.40;99.90
7360;DHT22;3720;48.274;7.796;2023-08-06T10:51:49;16.40;99.90
7360;DHT22;3720;48.274;7.796;2023-08-06T10:54:20;16.40;99.90
7360;DHT22;3720;48.274;7.796;2023-08-06T10:56:52;16.40;99.90
7360;DHT22;3720;48.274;7.796;2023-08-06T10:59:24;16.30;99.90
7360;DHT22;3720;48.274;7.796;2023-08-06T11:01:57;16.40;99.90
7360;DHT22;3720;48.274;7.796;2023-08-06T11:04:30;16.30;99.90
7360;DHT22;3720;48.274;7.796;2023-08-06T11:07:02;16.30;99.90
7360;DHT22;3720;48.274;7.796;2023-08-06T11:09:34;16.30;99.90
7360;DHT22;3720;48.274;7.796;2023-08-06T11:12:09;16.30;99.90
7360;DHT22;3720;48.274;7.796;2023-08-06T11:14:41;16.30;99.90
7360;DHT22;3720;48.274;7.796;2023-08-06T11:17:15;16.40;99.90
7360;DHT22;3720;48.274;7.796;2023-08-06T11:19:46;16.40;99.90
7360;DHT22;3720;48.274;7.796;2023-08-06T11:22:20;16.50;99.90
7360;DHT22;3720;48.274;7.796;2023-08-06T11:24:53;16.50;99.90
7360;DHT22;3720;48.274;7.796;2023-08-06T11:27:26;16.50;99.90
7360;DHT22;3720;48.274;7.796;2023-08-06T11:29:58;16.60;99.90
7360;DHT22;3720;48.274;7.796;2023-08-06T11:32:31;16.60;99.90
7360;DHT22;3720;48.274;7.796;2023-08-06T11:35:10;16.60;99.90
7360;DHT22;3720;48.274;7.796;2023-08-06T11:37:43;16.60;99.90
7360;DHT22;3720;48.274;7.796;2023-08-06T11:40:16;16.50;99.90
7360;DHT22;3720;48.274;7.796;2023-08-06T11:42:48;16.50;99.90
7360;DHT22;3720;48.274;7.796;2023-08-06T11:45:22;16.40;99.90
7360;DHT22;3720;48.274;7.796;2023-08-06T11:47:55;16.40;99.90
7360;DHT22;3720;48.274;7.796;2023-08-06T11:50:27;16.50;99.90
7360;DHT22;3720;48.274;7.796;2023-08-06T11:53:01;16.40;99.90
7360;DHT22;3720;48.274;7.796;2023-08-06T11:55:33;16.40;99.90
7360;DHT22;3720;48.274;7.796;2023-08-06T11:58:07;16.40;99.90
7360;DHT22;3720;48.274;7.796;2023-08-06T12:00:39;16.60;99.90
7360;DHT22;3720;48.274;7.796;2023-08-06T12:03:12;16.60;99.90
7360;DHT22;3720;48.274;7.796;2023-08-06T12:05:44;16.60;99.90
7360;DHT22;3720;48.274;7.796;2023-08-06T12:08:17;16.70;99.90
7360;DHT22;3720;48.274;7.796;2023-08-06T12:10:49;16.70;99.90
7360;DHT22;3720;48.274;7.796;2023-08-06T12:13:21;16.70;99.90
7360;DHT22;3720;48.274;7.796;2023-08-06T12:15:54;16.70;99.90
7360;DHT22;3720;48.274;7.796;2023-08-06T12:18:29;16.70;99.90
7360;DHT22;3720;48.274;7.796;2023-08-06T12:21:01;16.80;99.90
7360;DHT22;3720;48.274;7.796;2023-08-06T12:23:32;16.70;99.90
7360;DHT22;3720;48.274;7.796;2023-08-06T12:26:05;16.70;99.90
7360;DHT22;3720;48.274;7.796;2023-08-06T12:28:36;16.60;99.90
7360;DHT22;3720;48.274;7.796;2023-08-06T12:31:08;16.60;99.90
7360;DHT22;3720;48.274;7.796;2023-08-06T12:33:41;16.60;99.90
7360;DHT22;3720;48.274;7.796;2023-08-06T12:36:13;16.60;99.90
7360;DHT22;3720;48.274;7.796;2023-08-06T12:38:45;16.60;99.90
7360;DHT22;3720;48.274;7.796;2023-08-06T12:41:17;16.70;99.90
7360;DHT22;3720;48.274;7.796;2023-08-06T12:43:49;16.70;99.90
7360;DHT22;3720;48.274;7.796;2023-08-06T12:46:21;16.70;99.90
7360;DHT22;3720;48.274;7.796;2023-08-06T12:48:54;16.80;99.90
7360;DHT22;3720;48.274;7.796;2023-08-06T12:51:27;16.90;99.90
7360;DHT22;3720;48.274;7.796;2023-08-06T12:54:00;16.90;99.90
7360;DHT22;3720;48.274;7.796;2023-08-06T12:56:31;17.00;99.90
7360;DHT22;3720;48.274;7.796;2023-08-06T12:59:03;17.10;99.90
7360;DHT22;3720;48.274;7.796;2023-08-06T13:01:36;17.10;99.90
7360;DHT22;3720;48.274;7.796;2023-08-06T13:04:10;17.20;99.90
7360;DHT22;3720;48.274;7.796;2023-08-06T13:06:42;17.20;99.90
7360;DHT22;3720;48.274;7.796;2023-08-06T13:09:15;17.30;99.90
7360;DHT22;3720;48.274;7.796;2023-08-06T13:11:47;17.40;99.90
7360;DHT22;3720;48.274;7.796;2023-08-06T13:14:20;17.30;99.90
7360;DHT22;3720;48.274;7.796;2023-08-06T13:16:52;17.50;99.90
7360;DHT22;3720;48.274;7.796;2023-08-06T13:19:25;17.50;99.90
7360;DHT22;3720;48.274;7.796;2023-08-06T13:22:03;17.70;99.90
7360;DHT22;3720;48.274;7.796;2023-08-06T13:24:37;17.80;99.90
7360;DHT22;3720;48.274;7.796;2023-08-06T13:27:09;17.90;99.90
7360;DHT22;3720;48.274;7.796;2023-08-06T13:29:41;18.00;99.90
7360;DHT22;3720;48.274;7.796;2023-08-06T13:32:12;18.00;99.90
7360;DHT22;3720;48.274;7.796;2023-08-06T13:34:46;18.00;99.90
7360;DHT22;3720;48.274;7.796;2023-08-06T13:37:17;18.10;99.90
7360;DHT22;3720;48.274;7.796;2023-08-06T13:39:49;18.40;99.90
7360;DHT22;3720;48.274;7.796;2023-08-06T13:42:22;18.40;99.90
7360;DHT22;3720;48.274;7.796;2023-08-06T13:44:54;18.30;99.90
7360;DHT22;3720;48.274;7.796;2023-08-06T13:47:30;18.10;99.90
7360;DHT22;3720;48.274;7.796;2023-08-06T13:50:03;18.20;99.90
7360;DHT22;3720;48.274;7.796;2023-08-06T13:52:35;18.50;99.90
7360;DHT22;3720;48.274;7.796;2023-08-06T13:55:08;18.90;99.90
7360;DHT22;3720;48.274;7.796;2023-08-06T13:57:40;19.10;99.90
7360;DHT22;3720;48.274;7.796;2023-08-06T14:00:12;19.00;99.90
7360;DHT22;3720;48.274;7.796;2023-08-06T14:02:44;18.80;99.90
7360;DHT22;3720;48.274;7.796;2023-08-06T14:05:17;18.70;99.90
7360;DHT22;3720;48.274;7.796;2023-08-06T14:07:49;18.50;99.90
7360;DHT22;3720;48.274;7.796;2023-08-06T14:10:21;18.50;99.90
7360;DHT22;3720;48.274;7.796;2023-08-06T14:12:53;18.40;99.90
7360;DHT22;3720;48.274;7.796;2023-08-06T14:15:25;18.50;99.90
7360;DHT22;3720;48.274;7.796;2023-08-06T14:17:57;18.50;99.90
7360;DHT22;3720;48.274;7.796;2023-08-06T14:20:30;18.40;99.90
7360;DHT22;3720;48.274;7.796;2023-08-06T14:23:02;18.30;99.90
7360;DHT22;3720;48.274;7.796;2023-08-06T14:25:34;18.20;99.90
7360;DHT22;3720;48.274;7.796;2023-08-06T14:28:06;18.20;99.90
7360;DHT22;3720;48.274;7.796;2023-08-06T14:30:38;18.50;99.90
7360;DHT22;3720;48.274;7.796;2023-08-06T14:33:10;18.90;99.90
7360;DHT22;3720;48.274;7.796;2023-08-06T14:35:43;19.20;99.90
7360;DHT22;3720;48.274;7.796;2023-08-06T14:38:15;19.40;99.90
7360;DHT22;3720;48.274;7.796;2023-08-06T14:40:47;19.40;99.90
7360;DHT22;3720;48.274;7.796;2023-08-06T14:43:19;19.40;99.90
7360;DHT22;3720;48.274;7.796;2023-08-06T14:45:51;19.70;99.90
7360;DHT22;3720;48.274;7.796;2023-08-06T14:48:23;19.90;99.90
7360;DHT22;3720;48.274;7.796;2023-08-06T14:50:56;19.80;99.90
7360;DHT22;3720;48.274;7.796;2023-08-06T14:53:28;19.80;99.90
7360;DHT22;3720;48.274;7.796;2023-08-06T14:56:00;20.00;99.90
7360;DHT22;3720;48.274;7.796;2023-08-06T14:58:32;20.10;99.90
7360;DHT22;3720;48.274;7.796;2023-08-06T15:01:04;20.10;99.90
7360;DHT22;3720;48.274;7.796;2023-08-06T15:03:35;20.10;99.90
7360;DHT22;3720;48.274;7.796;2023-08-06T15:06:09;20.10;99.90
7360;DHT22;3720;48.274;7.796;2023-08-06T15:08:41;19.80;99.90
7360;DHT22;3720;48.274;7.796;2023-08-06T15:11:14;19.50;99.90
7360;DHT22;3720;48.274;7.796;2023-08-06T15:13:46;19.40;99.90
7360;DHT22;3720;48.274;7.796;2023-08-06T15:16:18;19.20;99.90
7360;DHT22;3720;48.274;7.796;2023-08-06T15:19:00;19.10;99.90
7360;DHT22;3720;48.274;7.796;2023-08-06T15:21:33;19.20;99.90
7360;DHT22;3720;48.274;7.796;2023-08-06T15:24:05;19.20;99.90
7360;DHT22;3720;48.274;7.796;2023-08-06T15:26:37;19.20;99.90
7360;DHT22;3720;48.274;7.796;2023-08-06T15:29:09;19.20;99.90
7360;DHT22;3720;48.274;7.796;2023-08-06T15:31:41;19.10;99.90
7360;DHT22;3720;48.274;7.796;2023-08-06T15:34:13;19.10;99.90
7360;DHT22;3720;48.274;7.796;2023-08-06T15:36:46;19.10;99.90
7360;DHT22;3720;48.274;7.796;2023-08-06T15:39:18;19.00;99.90
7360;DHT22;3720;48.274;7.796;2023-08-06T15:41:50;18.90;99.90
7360;DHT22;3720;48.274;7.796;2023-08-06T15:44:21;18.90;99.90
7360;DHT22;3720;48.274;7.796;2023-08-06T15:46:53;18.70;99.90
7360;DHT22;3720;48.274;7.796;2023-08-06T15:49:25;18.70;99.90
7360;DHT22;3720;48.274;7.796;2023-08-06T15:51:59;18.60;99.90
7360;DHT22;3720;48.274;7.796;2023-08-06T15:54:30;18.40;99.90
7360;DHT22;3720;48.274;7.796;2023-08-06T15:57:03;18.40;99.90
7360;DHT22;3720;48.274;7.796;2023-08-06T15:59:35;18.30;99.90
7360;DHT22;3720;48.274;7.796;2023-08-06T16:02:06;18.20;99.90
7360;DHT22;3720;48.274;7.796;2023-08-06T16:04:40;18.20;99.90
7360;DHT22;3720;48.274;7.796;2023-08-06T16:07:13;18.10;99.90
7360;DHT22;3720;48.274;7.796;2023-08-06T16:09:45;18.10;99.90
7360;DHT22;3720;48.274;7.796;2023-08-06T16:12:17;18.00;99.90
7360;DHT22;3720;48.274;7.796;2023-08-06T16:14:50;17.90;99.90
7360;DHT22;3720;48.274;7.796;2023-08-06T16:17:22;17.70;99.90
7360;DHT22;3720;48.274;7.796;2023-08-06T16:19:54;17.60;99.90
7360;DHT22;3720;48.274;7.796;2023-08-06T16:22:27;17.50;99.90
7360;DHT22;3720;48.274;7.796;2023-08-06T16:24:59;17.30;99.90
7360;DHT22;3720;48.274;7.796;2023-08-06T16:27:31;17.40;99.90
7360;DHT22;3720;48.274;7.796;2023-08-06T16:30:03;17.30;99.90
7360;DHT22;3720;48.274;7.796;2023-08-06T16:32:36;17.50;99.90
7360;DHT22;3720;48.274;7.796;2023-08-06T16:35:09;17.40;99.90
7360;DHT22;3720;48.274;7.796;2023-08-06T16:37:44;17.50;99.90